Portada
METAR-TAF:

METAR-TAF

Aeroports :

Medina, Aràbia Saudita

latitud: 24-33N, longitud: 039-42E, altitud: 654 m

Observació

L'informe es va fer fa 35 minuts, a les 12:00 UTC
Vent 4 kt del Nord-Oest
Temperatura 41°C
Humitat 9%
Pressió 1010 hPa
Visibilitat 10 km o més
Núvols disperses a una alçada de 4500 ft

METAR: OEMA 151200Z 32004KT 9999 SCT045 41/02 Q1010 NOSIG

Hora: 15:35 (12:35 UTC)

Pronòstic

L'informe es va fer fa 1 hora i 35 minuts, a les 11:00 UTC
Pronòstic vàlid del 15 a les 12 UTC al 16 a les 18 UTC
Vent 12 kt del Oest
Visibilitat: 8000 m
Escasses núvols a una alçada de 4500 ft
Evolucionant progressivament
l' 15 a les 20 UTC al 15 a les 22 UTC
Vent 6 kt del Oest/Sud-Oest

TAF: OEMA 151100Z 1512/1618 28012KT 8000 FEW045 BECMG 1520/1522 24006KT

Observacions i pronòstics meteorològics de més de 4000 aeroports (METAR i TAF).

Les estacions disponibles són els punts grocs i vermells al mapa.

Posi el ratolí al punt desitjat per veure el nom de l'estació.

Feu clic per veure les observacions i els pronòstics meteorològics.

Per canviar el mapa: feu clic els botons verds amb una creu de color negre per apropar; al botó verd amb un guió per allunyar la imatge; o en les fletxes verdes per a mapes adjacents.


METAR-TAF: